Time;durP1;ratioP1;P1;durP2;ratioP2;P2;SDS_P1;SDS_P2;PMS_P1;PMS_P2;Temp;Humidity;BMP_temperature;BMP_pressure;BME280_temperature;BME280_humidity;BME280_pressure;Samples;Min_cycle;Max_cycle;Signal;HPM_P1;HPM_P2
2022/08/03 00:01:18;;;;;;;;;;;;;;;18.66;58.56;100768.70;1645544;85;20221;-77
2022/08/03 00:03:44;;;;;;;;;;;;;;;18.64;58.60;100769.45;1655093;85;20217;-78
2022/08/03 00:06:10;;;;;;;;;;;;;;;18.62;58.68;100767.47;1663688;83;20154;-78
2022/08/03 00:08:36;;;;;;;;;;;;;;;18.59;58.72;100769.24;1707335;83;20169;-78
2022/08/03 00:11:02;;;;;;;;;;;;;;;18.59;58.77;100774.65;1709410;83;21191;-78
2022/08/03 00:13:28;;;;;;;;;;;;;;;18.58;58.83;100771.66;1701654;83;20169;-78
2022/08/03 00:15:54;;;;;;;;;;;;;;;18.56;58.90;100768.32;1680068;83;20289;-78
2022/08/03 00:18:20;;;;;;;;;;;;;;;18.55;58.95;100774.24;1693222;83;20327;-78
2022/08/03 00:20:46;;;;;;;;;;;;;;;18.55;58.99;100773.41;1678057;83;20325;-78
2022/08/03 00:23:11;;;;;;;;;;;;;;;18.55;59.04;100773.41;1701437;83;21112;-78
2022/08/03 00:25:37;;;;;;;;;;;;;;;18.56;59.05;100769.67;1678129;85;20190;-78
2022/08/03 00:28:04;;;;;;;;;;;;;;;18.55;59.10;100761.25;1673173;83;20249;-78
2022/08/03 00:30:30;;;;;;;;;;;;;;;18.56;59.15;100761.57;1666553;83;20160;-78
2022/08/03 00:32:55;;;;;;;;;;;;;;;18.55;59.19;100764.78;1669444;85;20174;-78
2022/08/03 00:35:21;;;;;;;;;;;;;;;18.54;59.23;100762.31;1630015;87;21193;-78
2022/08/03 00:37:47;;;;;;;;;;;;;;;18.52;59.28;100758.98;1677948;84;20229;-78
2022/08/03 00:40:14;;;;;;;;;;;;;;;18.52;59.30;100766.56;1650955;86;20214;-78
2022/08/03 00:42:47;;;;;;;;;;;;;;;18.53;59.34;100769.59;1624911;86;20197;-77
2022/08/03 00:45:13;;;;;;;;;;;;;;;18.54;59.38;100767.72;1639545;86;20161;-77
2022/08/03 00:47:39;;;;;;;;;;;;;;;18.55;59.39;100757.20;1654725;85;22132;-77
2022/08/03 00:50:05;;;;;;;;;;;;;;;18.54;59.44;100756.91;1642255;85;20299;-77
2022/08/03 00:52:33;;;;;;;;;;;;;;;18.54;59.45;100760.97;1703278;83;20163;-77
2022/08/03 00:55:00;;;;;;;;;;;;;;;18.54;59.50;100754.21;1706487;83;20146;-77
2022/08/03 00:57:26;;;;;;;;;;;;;;;18.54;59.53;100752.86;1689092;83;20167;-77
2022/08/03 00:59:52;;;;;;;;;;;;;;;18.55;59.55;100757.20;1692150;83;21062;-77
2022/08/03 01:02:17;;;;;;;;;;;;;;;18.56;59.59;100751.59;1653942;85;20256;-77
2022/08/03 01:04:43;;;;;;;;;;;;;;;18.58;59.63;100749.50;1655064;85;20225;-77
2022/08/03 01:07:31;;;;;;;;;;;;;;;18.59;59.62;100743.58;1661590;85;20244;-77
2022/08/03 01:10:11;;;;;;;;;;;;;;;18.61;59.67;100745.56;1648505;85;20186;-77
2022/08/03 01:12:42;;;;;;;;;;;;;;;18.62;59.69;100741.80;1655425;85;21189;-78
2022/08/03 01:15:30;;;;;;;;;;;;;;;18.61;59.69;100740.16;1629817;86;20165;-77
2022/08/03 01:18:06;;;;;;;;;;;;;;;18.62;59.72;100739.09;1638045;85;20212;-77
2022/08/03 01:20:33;;;;;;;;;;;;;;;18.62;59.73;100730.98;1632683;85;20161;-77
2022/08/03 01:23:05;;;;;;;;;;;;;;;18.65;59.75;100737.31;1652570;86;20158;-77
2022/08/03 01:26:01;;;;;;;;;;;;;;;18.67;59.76;100733.89;1701124;84;21028;-77
2022/08/03 01:29:04;;;;;;;;;;;;;;;18.69;59.77;100733.14;1669200;83;20452;-77
2022/08/03 01:31:41;;;;;;;;;;;;;;;18.70;59.79;100733.46;1692450;83;20189;-77
2022/08/03 01:34:09;;;;;;;;;;;;;;;18.72;59.78;100731.36;1705117;83;20157;-77
2022/08/03 01:36:38;;;;;;;;;;;;;;;18.77;59.78;100737.80;1686698;83;20177;-77
2022/08/03 01:39:08;;;;;;;;;;;;;;;18.82;59.75;100737.16;1647211;85;21147;-77
2022/08/03 01:41:34;;;;;;;;;;;;;;;18.87;59.72;100726.52;1687213;83;20159;-77
2022/08/03 01:44:03;;;;;;;;;;;;;;;18.88;59.70;100722.77;1656205;85;20190;-77
2022/08/03 01:46:29;;;;;;;;;;;;;;;18.89;59.69;100727.14;1654804;85;20194;-77
2022/08/03 01:48:54;;;;;;;;;;;;;;;18.88;59.68;100722.77;1678211;85;20261;-78
2022/08/03 01:51:20;;;;;;;;;;;;;;;18.86;59.67;100718.09;1715739;83;21117;-77
2022/08/03 01:53:47;;;;;;;;;;;;;;;18.85;59.67;100721.86;1695987;82;20175;-77
2022/08/03 01:56:13;;;;;;;;;;;;;;;18.83;59.68;100716.66;1699862;83;20201;-77
2022/08/03 01:58:39;;;;;;;;;;;;;;;18.83;59.68;100719.88;1703630;83;20239;-77
2022/08/03 02:01:05;;;;;;;;;;;;;;;18.81;59.67;100713.88;1715099;83;20180;-77
2022/08/03 02:03:33;;;;;;;;;;;;;;;18.81;59.69;100712.52;1704520;83;20493;-77
2022/08/03 02:05:58;;;;;;;;;;;;;;;18.79;59.69;100716.78;1717425;83;20161;-77
2022/08/03 02:08:24;;;;;;;;;;;;;;;18.78;59.70;100712.95;1685098;82;20359;-78
2022/08/03 02:10:50;;;;;;;;;;;;;;;18.77;59.74;100712.64;1680199;83;20783;-78
2022/08/03 02:13:16;;;;;;;;;;;;;;;18.76;59.74;100714.51;1666495;83;20242;-78
2022/08/03 02:15:42;;;;;;;;;;;;;;;18.76;59.75;100710.97;1669107;84;21050;-77
2022/08/03 02:18:09;;;;;;;;;;;;;;;18.74;59.77;100707.67;1657889;85;20201;-78
2022/08/03 02:20:37;;;;;;;;;;;;;;;18.72;59.80;100709.74;1636625;85;20194;-77
2022/08/03 02:23:04;;;;;;;;;;;;;;;18.70;59.83;100706.44;1636209;85;20458;-78
2022/08/03 02:25:30;;;;;;;;;;;;;;;18.68;59.86;100703.14;1658965;85;20181;-77
2022/08/03 02:28:03;;;;;;;;;;;;;;;18.66;59.86;100706.56;1595236;85;21040;-78
2022/08/03 02:30:38;;;;;;;;;;;;;;;18.63;59.93;100704.29;1647241;85;20470;-78
2022/08/03 02:33:06;;;;;;;;;;;;;;;18.58;59.98;100697.38;1643860;85;20497;-77
2022/08/03 02:35:32;;;;;;;;;;;;;;;18.56;60.00;100702.14;1634193;85;20615;-78
2022/08/03 02:38:01;;;;;;;;;;;;;;;18.53;60.02;100702.57;1624322;86;20263;-78
2022/08/03 02:40:27;;;;;;;;;;;;;;;18.50;60.06;100694.87;1623857;88;21151;-78
2022/08/03 02:42:55;;;;;;;;;;;;;;;18.46;60.10;100698.00;1636491;86;20197;-78
2022/08/03 02:45:21;;;;;;;;;;;;;;;18.43;60.14;100697.09;1640790;85;20489;-77
2022/08/03 02:47:47;;;;;;;;;;;;;;;18.40;60.17;100702.89;1649511;85;20244;-78
2022/08/03 02:50:13;;;;;;;;;;;;;;;18.36;60.23;100696.28;1631363;87;20182;-78
2022/08/03 02:52:39;;;;;;;;;;;;;;;18.33;60.28;100695.33;1628356;87;21120;-77
2022/08/03 02:55:06;;;;;;;;;;;;;;;18.29;60.33;100706.79;1611380;87;20483;-78
2022/08/03 02:57:32;;;;;;;;;;;;;;;18.23;60.38;100701.70;1650981;85;20167;-77
2022/08/03 02:59:58;;;;;;;;;;;;;;;18.20;60.44;100704.83;1643173;85;20801;-78
2022/08/03 03:02:24;;;;;;;;;;;;;;;18.17;60.49;100703.91;1642710;85;20285;-78
2022/08/03 03:04:50;;;;;;;;;;;;;;;18.14;60.52;100706.20;1651817;85;21067;-78
2022/08/03 03:07:16;;;;;;;;;;;;;;;18.11;60.60;100703.93;1642363;85;20162;-78
2022/08/03 03:09:42;;;;;;;;;;;;;;;18.06;60.66;100700.50;1672895;84;20221;-78
2022/08/03 03:12:09;;;;;;;;;;;;;;;18.03;60.71;100702.28;1657607;85;20515;-78
2022/08/03 03:14:35;;;;;;;;;;;;;;;18.00;60.79;100702.70;1651736;84;20457;-78
2022/08/03 03:17:01;;;;;;;;;;;;;;;17.97;60.84;100705.83;1696392;83;21770;-78
2022/08/03 03:19:27;;;;;;;;;;;;;;;17.95;60.91;100700.63;1658467;85;20189;-78
2022/08/03 03:21:53;;;;;;;;;;;;;;;17.92;60.96;100698.88;1686933;83;20167;-78
2022/08/03 03:24:19;;;;;;;;;;;;;;;17.90;61.03;100705.02;1648584;85;20519;-78
2022/08/03 03:26:45;;;;;;;;;;;;;;;17.86;61.09;100700.55;1666455;85;20342;-78
2022/08/03 03:29:11;;;;;;;;;;;;;;;17.84;61.14;100705.31;1648521;86;20744;-78
2022/08/03 03:31:37;;;;;;;;;;;;;;;17.82;61.18;100705.22;1708479;83;20471;-78
2022/08/03 03:34:03;;;;;;;;;;;;;;;17.80;61.27;100700.56;1665494;85;20202;-78
2022/08/03 03:36:29;;;;;;;;;;;;;;;17.80;61.34;100701.37;1661637;85;20171;-78
2022/08/03 03:38:56;;;;;;;;;;;;;;;17.79;61.39;100706.99;1678637;84;20234;-78
2022/08/03 03:41:21;;;;;;;;;;;;;;;17.77;61.46;100711.75;1661000;85;21087;-77
2022/08/03 03:43:48;;;;;;;;;;;;;;;17.78;61.52;100709.38;1654219;85;20208;-78
2022/08/03 03:46:14;;;;;;;;;;;;;;;17.75;61.57;100707.09;1652691;86;20158;-78
2022/08/03 03:48:40;;;;;;;;;;;;;;;17.76;61.64;100714.16;1712261;83;20270;-77
2022/08/03 03:51:06;;;;;;;;;;;;;;;17.73;61.72;100708.64;1712770;82;20183;-77
2022/08/03 03:53:32;;;;;;;;;;;;;;;17.73;61.82;100718.63;1695054;83;21141;-78
2022/08/03 03:55:58;;;;;;;;;;;;;;;17.74;61.88;100721.61;1703565;82;20805;-77
2022/08/03 03:58:24;;;;;;;;;;;;;;;17.74;61.94;100719.75;1688589;83;20479;-77
2022/08/03 04:00:50;;;;;;;;;;;;;;;17.77;62.00;100718.50;1704068;83;20189;-78
2022/08/03 04:03:16;;;;;;;;;;;;;;;17.81;62.04;100731.88;1676844;85;20183;-77
2022/08/03 04:11:21;;;;;;;;;;;;;;;17.89;62.17;100727.63;1644953;85;20158;-77
2022/08/03 04:14:05;;;;;;;;;;;;;;;17.94;62.22;100723.80;1642096;86;20469;-78
2022/08/03 04:16:34;;;;;;;;;;;;;;;18.00;62.23;100721.59;1644229;85;20200;-77
2022/08/03 04:19:02;;;;;;;;;;;;;;;18.06;62.23;100720.75;1701736;83;21173;-78
2022/08/03 04:21:29;;;;;;;;;;;;;;;18.11;62.25;100729.06;1709490;83;20207;-78
2022/08/03 04:23:57;;;;;;;;;;;;;;;18.18;62.25;100724.47;1691899;83;20457;-78
2022/08/03 04:26:23;;;;;;;;;;;;;;;18.24;62.27;100724.97;1695871;83;20196;-78
2022/08/03 04:28:50;;;;;;;;;;;;;;;18.32;62.27;100728.80;1685534;83;20155;-78
2022/08/03 04:31:17;;;;;;;;;;;;;;;18.39;62.26;100726.91;1667138;85;22018;-78
2022/08/03 04:33:43;;;;;;;;;;;;;;;18.45;62.23;100732.80;1654304;85;20681;-78
2022/08/03 04:36:10;;;;;;;;;;;;;;;18.53;62.23;100729.58;1677483;84;20172;-77
2022/08/03 04:38:38;;;;;;;;;;;;;;;18.59;62.21;100730.07;1678513;85;20188;-78
2022/08/03 04:41:04;;;;;;;;;;;;;;;18.65;62.16;100733.27;1676790;85;20163;-78
2022/08/03 04:43:31;;;;;;;;;;;;;;;18.71;62.15;100740.53;1656397;85;21187;-77
2022/08/03 04:45:57;;;;;;;;;;;;;;;18.73;62.07;100735.73;1650105;85;20473;-78
2022/08/03 04:48:23;;;;;;;;;;;;;;;18.72;62.06;100736.25;1646477;85;20220;-78
2022/08/03 04:50:49;;;;;;;;;;;;;;;18.72;62.03;100734.89;1654244;86;20236;-78
2022/08/03 04:53:15;;;;;;;;;;;;;;;18.76;62.05;100738.00;1647235;85;20873;-78
2022/08/03 04:55:41;;;;;;;;;;;;;;;18.77;62.03;100739.14;1641711;85;21171;-78
2022/08/03 04:58:07;;;;;;;;;;;;;;;18.83;62.04;100741.50;1651844;85;20290;-78
2022/08/03 05:00:33;;;;;;;;;;;;;;;18.83;62.01;100737.45;1655466;85;20177;-77
2022/08/03 05:02:58;;;;;;;;;;;;;;;18.84;62.00;100737.76;1652383;85;20390;-78
2022/08/03 05:05:24;;;;;;;;;;;;;;;19.04;62.01;100738.48;1674009;85;20265;-78
2022/08/03 05:07:50;;;;;;;;;;;;;;;19.68;61.93;100745.55;1654053;85;21206;-78
2022/08/03 05:10:16;;;;;;;;;;;;;;;20.14;61.82;100735.13;1662860;85;20220;-78
2022/08/03 05:12:43;;;;;;;;;;;;;;;20.57;61.71;100732.40;1663029;85;21016;-78
2022/08/03 05:15:09;;;;;;;;;;;;;;;21.26;61.49;100733.25;1669137;85;20474;-79
2022/08/03 05:17:35;;;;;;;;;;;;;;;21.89;61.17;100739.42;1669595;85;20170;-78
2022/08/03 05:20:03;;;;;;;;;;;;;;;22.48;60.86;100740.25;1673025;85;21238;-78
2022/08/03 05:22:28;;;;;;;;;;;;;;;22.98;60.39;100744.02;1667612;85;20453;-78
2022/08/03 05:24:54;;;;;;;;;;;;;;;23.53;60.00;100747.52;1666235;86;20210;-78
2022/08/03 05:27:20;;;;;;;;;;;;;;;23.86;59.47;100748.86;1662329;85;20265;-78
2022/08/03 05:29:48;;;;;;;;;;;;;;;24.17;59.01;100740.09;1657197;86;20800;-78
2022/08/03 05:32:14;;;;;;;;;;;;;;;24.41;58.52;100745.34;1657723;85;21727;-78
2022/08/03 05:34:40;;;;;;;;;;;;;;;24.67;58.12;100750.03;1633798;86;20147;-78
2022/08/03 05:37:06;;;;;;;;;;;;;;;24.91;57.68;100742.47;1633126;85;20218;-78
2022/08/03 05:39:33;;;;;;;;;;;;;;;25.12;57.19;100745.13;1633242;85;21453;-78
2022/08/03 05:41:58;;;;;;;;;;;;;;;25.16;56.78;100749.00;1621810;86;20231;-78
2022/08/03 05:44:24;;;;;;;;;;;;;;;25.32;56.44;100747.27;1716240;83;21902;-78
2022/08/03 05:46:51;;;;;;;;;;;;;;;25.54;56.03;100752.69;1706488;84;20222;-78
2022/08/03 05:49:17;;;;;;;;;;;;;;;25.70;55.69;100749.81;1688044;83;20417;-78
2022/08/03 05:51:45;;;;;;;;;;;;;;;25.96;55.40;100750.84;1697838;83;20448;-79
2022/08/03 05:54:10;;;;;;;;;;;;;;;26.13;54.90;100746.03;1699835;83;20250;-78
2022/08/03 05:56:36;;;;;;;;;;;;;;;26.31;54.56;100751.10;1712264;83;21789;-78
2022/08/03 05:59:02;;;;;;;;;;;;;;;26.58;54.31;100748.77;1705050;83;21145;-78
2022/08/03 06:01:30;;;;;;;;;;;;;;;26.87;54.02;100754.12;1704246;83;20204;-79
2022/08/03 06:03:56;;;;;;;;;;;;;;;27.09;53.61;100755.28;1712387;83;20459;-79
2022/08/03 06:06:22;;;;;;;;;;;;;;;27.01;53.24;100755.26;1699152;83;20180;-79
2022/08/03 06:08:47;;;;;;;;;;;;;;;26.74;53.03;100754.59;1654666;85;21963;-78
2022/08/03 06:11:13;;;;;;;;;;;;;;;26.42;52.92;100755.27;1704812;82;20223;-79
2022/08/03 06:13:39;;;;;;;;;;;;;;;26.12;52.85;100758.05;1666764;84;20827;-79
2022/08/03 06:16:05;;;;;;;;;;;;;;;25.91;52.80;100764.46;1708999;83;21259;-78
2022/08/03 06:18:31;;;;;;;;;;;;;;;25.74;52.79;100756.95;1698564;84;20188;-78
2022/08/03 06:20:57;;;;;;;;;;;;;;;25.53;52.76;100761.42;1708201;83;21789;-78
2022/08/03 06:23:23;;;;;;;;;;;;;;;25.37;52.79;100762.31;1700855;83;20126;-78
2022/08/03 06:25:49;;;;;;;;;;;;;;;25.25;52.84;100758.39;1687998;84;20827;-78
2022/08/03 06:28:16;;;;;;;;;;;;;;;25.06;52.84;100758.98;1672262;84;20502;-78
2022/08/03 06:30:42;;;;;;;;;;;;;;;24.91;52.87;100765.66;1688429;85;20514;-78
2022/08/03 06:33:08;;;;;;;;;;;;;;;24.88;52.99;100768.87;1709258;82;21941;-78
2022/08/03 06:35:34;;;;;;;;;;;;;;;24.84;53.10;100764.46;1728369;83;20735;-79
2022/08/03 06:38:00;;;;;;;;;;;;;;;25.20;53.16;100768.42;1728325;82;20324;-79
2022/08/03 06:40:30;;;;;;;;;;;;;;;25.32;52.93;100767.20;1725789;83;20404;-79
2022/08/03 06:43:01;;;;;;;;;;;;;;;25.53;52.91;100767.42;1695842;83;20560;-79
2022/08/03 06:45:30;;;;;;;;;;;;;;;26.01;52.85;100767.27;1676595;84;22496;-79
2022/08/03 06:48:07;;;;;;;;;;;;;;;26.42;52.62;100766.20;1701090;83;20116;-79
2022/08/03 06:50:34;;;;;;;;;;;;;;;26.77;52.43;100765.00;1692129;83;20157;-78
2022/08/03 06:53:00;;;;;;;;;;;;;;;26.99;52.15;100764.81;1696840;83;20339;-79
2022/08/03 06:55:26;;;;;;;;;;;;;;;27.15;52.02;100768.72;1687856;83;20774;-79
2022/08/03 06:57:52;;;;;;;;;;;;;;;27.22;51.69;100769.28;1698928;84;21857;-79
2022/08/03 07:00:18;;;;;;;;;;;;;;;27.37;51.59;100769.86;1689590;83;20177;-78
2022/08/03 07:02:43;;;;;;;;;;;;;;;27.49;51.37;100769.61;1696746;84;20184;-79
2022/08/03 07:05:09;;;;;;;;;;;;;;;27.66;51.21;100771.53;1671359;84;20709;-77
2022/08/03 07:07:36;;;;;;;;;;;;;;;27.83;50.99;100769.37;1703630;82;20245;-79
2022/08/03 07:10:02;;;;;;;;;;;;;;;27.99;50.82;100769.63;1655473;84;22607;-79
2022/08/03 07:12:28;;;;;;;;;;;;;;;28.14;50.65;100769.64;1652796;85;20224;-80
2022/08/03 07:14:54;;;;;;;;;;;;;;;28.31;50.36;100768.50;1632772;86;20125;-80
2022/08/03 07:17:20;;;;;;;;;;;;;;;28.33;50.14;100773.97;1690152;83;20346;-80
2022/08/03 07:19:46;;;;;;;;;;;;;;;28.18;49.79;100765.22;1681400;83;20273;-79
2022/08/03 07:22:12;;;;;;;;;;;;;;;28.11;49.75;100766.63;1703692;83;21904;-79
2022/08/03 07:24:37;;;;;;;;;;;;;;;28.23;49.60;100763.84;1678661;82;20197;-80
2022/08/03 07:27:03;;;;;;;;;;;;;;;28.36;49.42;100765.17;1693617;83;20192;-79
2022/08/03 07:29:29;;;;;;;;;;;;;;;28.47;49.21;100759.94;1662219;85;20430;-80
2022/08/03 07:31:55;;;;;;;;;;;;;;;28.52;49.02;100759.11;1695189;83;20215;-80
2022/08/03 07:34:21;;;;;;;;;;;;;;;28.64;48.87;100758.25;1692880;83;21852;-79
2022/08/03 07:36:47;;;;;;;;;;;;;;;28.72;48.68;100759.05;1658006;84;20184;-80
2022/08/03 07:39:13;;;;;;;;;;;;;;;28.87;48.49;100756.24;1694927;83;21173;-79
2022/08/03 07:41:38;;;;;;;;;;;;;;;28.92;48.28;100756.23;1703090;83;20708;-79
2022/08/03 07:44:04;;;;;;;;;;;;;;;28.99;48.24;100755.92;1707284;83;20713;-79
2022/08/03 07:46:30;;;;;;;;;;;;;;;29.13;48.07;100757.73;1688509;82;21785;-79
2022/08/03 07:48:56;;;;;;;;;;;;;;;29.24;47.87;100760.69;1704554;83;20193;-79
2022/08/03 07:51:22;;;;;;;;;;;;;;;29.27;47.80;100755.78;1655570;85;20831;-79
2022/08/03 07:53:48;;;;;;;;;;;;;;;29.42;47.56;100755.66;1661319;85;20164;-79
2022/08/03 07:56:15;;;;;;;;;;;;;;;29.52;47.48;100752.28;1644910;85;20201;-74
2022/08/03 07:58:41;;;;;;;;;;;;;;;29.52;47.09;100756.40;1646098;85;22497;-75
2022/08/03 08:01:07;;;;;;;;;;;;;;;29.36;46.82;100754.05;1635458;85;20467;-75
2022/08/03 08:03:33;;;;;;;;;;;;;;;29.38;46.77;100760.11;1680847;84;20423;-77
2022/08/03 08:05:59;;;;;;;;;;;;;;;29.57;46.65;100755.55;1669535;84;20479;-75
2022/08/03 08:08:25;;;;;;;;;;;;;;;29.73;46.43;100758.45;1678326;84;20170;-74
2022/08/03 08:10:51;;;;;;;;;;;;;;;29.89;46.25;100759.98;1679051;85;21814;-75
2022/08/03 08:13:16;;;;;;;;;;;;;;;30.05;46.17;100757.34;1674962;84;20860;-75
2022/08/03 08:15:42;;;;;;;;;;;;;;;30.10;45.91;100754.55;1677767;83;20286;-75
2022/08/03 08:18:08;;;;;;;;;;;;;;;30.14;45.74;100754.23;1689054;84;20486;-75
2022/08/03 08:20:36;;;;;;;;;;;;;;;30.24;45.65;100750.55;1662388;85;20567;-75
2022/08/03 08:23:04;;;;;;;;;;;;;;;30.17;45.34;100757.78;1701117;83;21493;-75
2022/08/03 08:25:30;;;;;;;;;;;;;;;30.17;45.33;100753.66;1692419;83;20214;-75
2022/08/03 08:27:56;;;;;;;;;;;;;;;30.22;45.26;100755.55;1685290;83;20642;-75
2022/08/03 08:30:22;;;;;;;;;;;;;;;30.38;45.12;100759.75;1685570;83;21336;-75
2022/08/03 08:32:48;;;;;;;;;;;;;;;30.14;44.73;100758.37;1684946;83;20273;-75
2022/08/03 08:35:15;;;;;;;;;;;;;;;30.07;44.69;100751.02;1681906;83;21829;-75
2022/08/03 08:37:42;;;;;;;;;;;;;;;30.09;44.37;100748.77;1684912;83;20161;-75
2022/08/03 08:40:08;;;;;;;;;;;;;;;30.01;44.11;100754.90;1685833;83;20139;-75
2022/08/03 08:42:36;;;;;;;;;;;;;;;29.95;44.04;100747.81;1686527;83;20466;-79
2022/08/03 08:45:04;;;;;;;;;;;;;;;30.20;43.95;100747.56;1685994;83;20159;-79
2022/08/03 08:47:30;;;;;;;;;;;;;;;30.50;43.72;100751.12;1699164;83;21777;-79
2022/08/03 08:49:57;;;;;;;;;;;;;;;30.64;43.50;100752.05;1662192;85;20333;-79
2022/08/03 08:52:25;;;;;;;;;;;;;;;30.58;43.19;100751.83;1662852;84;20179;-78
2022/08/03 08:54:56;;;;;;;;;;;;;;;30.59;43.02;100746.59;1693983;83;20446;-79
2022/08/03 08:57:25;;;;;;;;;;;;;;;30.69;42.92;100747.84;1703224;83;20164;-79
2022/08/03 08:59:52;;;;;;;;;;;;;;;30.64;42.62;100748.75;1690568;82;21711;-79
2022/08/03 09:02:18;;;;;;;;;;;;;;;30.54;42.51;100754.94;1652735;85;20113;-79
2022/08/03 09:04:44;;;;;;;;;;;;;;;30.40;41.99;100751.22;1638184;86;20536;-79
2022/08/03 09:07:10;;;;;;;;;;;;;;;30.22;41.89;100750.03;1713709;83;20401;-79
2022/08/03 09:09:36;;;;;;;;;;;;;;;30.14;41.79;100748.73;1709117;82;20202;-78
2022/08/03 09:12:02;;;;;;;;;;;;;;;30.42;41.71;100751.77;1705099;83;21960;-79
2022/08/03 09:14:28;;;;;;;;;;;;;;;30.29;41.25;100748.31;1696725;82;20156;-79
2022/08/03 09:17:03;;;;;;;;;;;;;;;30.44;41.06;100738.52;1717656;83;20106;-79
2022/08/03 09:19:30;;;;;;;;;;;;;;;30.52;40.61;100742.83;1717483;83;20406;-78
2022/08/03 09:22:14;;;;;;;;;;;;;;;30.59;40.31;100750.17;1717558;83;20143;-79
2022/08/03 09:24:56;;;;;;;;;;;;;;;30.69;40.22;100749.22;1717639;83;21849;-79
2022/08/03 09:27:22;;;;;;;;;;;;;;;30.77;39.92;100745.82;1700054;83;20447;-79
2022/08/03 09:29:50;;;;;;;;;;;;;;;30.79;39.70;100740.83;1708785;83;20222;-78
2022/08/03 09:32:20;;;;;;;;;;;;;;;30.81;39.59;100741.36;1687279;83;21151;-78
2022/08/03 09:34:48;;;;;;;;;;;;;;;30.85;39.44;100738.84;1688127;83;20190;-79
2022/08/03 09:37:14;;;;;;;;;;;;;;;31.01;39.29;100744.42;1694145;83;21850;-78
2022/08/03 09:39:41;;;;;;;;;;;;;;;31.13;39.20;100738.74;1687243;83;20149;-78
2022/08/03 09:42:16;;;;;;;;;;;;;;;31.16;39.00;100738.70;1690330;83;20292;-78
2022/08/03 09:44:46;;;;;;;;;;;;;;;31.03;38.93;100736.69;1667814;85;20427;-79
2022/08/03 09:47:13;;;;;;;;;;;;;;;31.11;38.89;100731.31;1694502;83;20405;-79
2022/08/03 09:49:43;;;;;;;;;;;;;;;31.03;38.78;100732.01;1707632;83;22622;-78
2022/08/03 09:52:17;;;;;;;;;;;;;;;30.96;38.66;100734.28;1706692;82;20168;-79
2022/08/03 09:54:43;;;;;;;;;;;;;;;30.69;38.55;100735.45;1717033;83;20149;-79
2022/08/03 09:57:12;;;;;;;;;;;;;;;30.73;38.75;100731.82;1710701;83;20398;-78
2022/08/03 09:59:40;;;;;;;;;;;;;;;30.83;38.66;100726.73;1680368;83;20169;-79
2022/08/03 10:02:05;;;;;;;;;;;;;;;30.86;38.58;100731.64;1678939;83;21768;-79
2022/08/03 10:04:31;;;;;;;;;;;;;;;31.00;38.50;100724.30;1629179;84;20969;-79
2022/08/03 10:07:08;;;;;;;;;;;;;;;31.10;38.37;100724.16;1686984;83;20280;-79
2022/08/03 10:09:34;;;;;;;;;;;;;;;31.09;38.29;100731.36;1716020;82;20447;-79
2022/08/03 10:12:10;;;;;;;;;;;;;;;30.89;38.06;100728.87;1675731;84;20195;-79
2022/08/03 10:14:37;;;;;;;;;;;;;;;30.79;38.00;100724.30;1675318;84;22632;-79
2022/08/03 10:17:03;;;;;;;;;;;;;;;30.78;37.96;100719.92;1632131;87;20919;-79
2022/08/03 10:19:29;;;;;;;;;;;;;;;30.71;37.81;100722.22;1637071;86;20229;-79
2022/08/03 10:21:56;;;;;;;;;;;;;;;30.83;37.79;100719.84;1633938;87;20379;-79
2022/08/03 10:24:27;;;;;;;;;;;;;;;31.02;37.77;100725.41;1645117;85;20186;-79
2022/08/03 10:26:57;;;;;;;;;;;;;;;31.11;37.72;100720.29;1661405;85;21930;-79
2022/08/03 10:29:23;;;;;;;;;;;;;;;31.07;37.58;100716.48;1636070;86;20189;-79
2022/08/03 10:31:49;;;;;;;;;;;;;;;31.00;37.46;100720.17;1641750;85;20201;-79
2022/08/03 10:34:23;;;;;;;;;;;;;;;31.06;37.48;100716.25;1655596;84;21013;-79
2022/08/03 10:36:49;;;;;;;;;;;;;;;31.24;37.42;100713.23;1651101;85;20177;-79
2022/08/03 10:39:17;;;;;;;;;;;;;;;31.33;37.34;100714.73;1645159;85;22662;-79
2022/08/03 10:41:45;;;;;;;;;;;;;;;31.17;37.42;100715.54;1649036;85;20158;-79
2022/08/03 10:44:14;;;;;;;;;;;;;;;31.27;37.39;100715.94;1642631;85;20147;-79
2022/08/03 10:46:40;;;;;;;;;;;;;;;31.18;37.08;100709.71;1653293;85;21079;-79
2022/08/03 10:49:06;;;;;;;;;;;;;;;31.16;36.64;100704.25;1633225;87;20176;-79
2022/08/03 10:51:32;;;;;;;;;;;;;;;30.92;36.20;100697.41;1635767;87;21879;-78
2022/08/03 10:53:58;;;;;;;;;;;;;;;30.62;36.35;100700.56;1645978;87;20188;-79
2022/08/03 21:11:27;;;;;;;;;;;;;;;24.06;44.36;100626.56;1707863;80;20687;-77
2022/08/03 21:13:54;;;;;;;;;;;;;;;24.03;44.50;100628.41;1719835;82;21988;-77
2022/08/03 21:16:20;;;;;;;;;;;;;;;23.97;44.55;100628.06;1711841;82;20291;-78
2022/08/03 21:18:48;;;;;;;;;;;;;;;23.94;44.67;100630.47;1720158;82;20302;-77
2022/08/03 21:21:15;;;;;;;;;;;;;;;23.91;44.74;100626.35;1718963;82;20461;-78
2022/08/03 21:23:41;;;;;;;;;;;;;;;23.89;44.80;100631.21;1710530;82;20703;-77
2022/08/03 21:26:08;;;;;;;;;;;;;;;23.84;44.89;100627.07;1711251;82;21869;-77
2022/08/03 21:28:34;;;;;;;;;;;;;;;23.80;44.97;100627.28;1713753;82;20480;-77
2022/08/03 21:31:00;;;;;;;;;;;;;;;23.79;45.05;100629.71;1712898;82;20227;-76
2022/08/03 21:33:26;;;;;;;;;;;;;;;23.77;45.13;100626.42;1722296;82;20180;-77
2022/08/03 21:35:52;;;;;;;;;;;;;;;23.72;45.21;100622.25;1713808;81;20193;-77
2022/08/03 21:38:18;;;;;;;;;;;;;;;23.69;45.32;100624.13;1718801;82;21138;-77
2022/08/03 21:40:45;;;;;;;;;;;;;;;23.66;45.40;100624.63;1716554;82;20179;-77
2022/08/03 21:43:11;;;;;;;;;;;;;;;23.66;45.47;100628.71;1688585;82;20200;-77
2022/08/03 21:45:53;;;;;;;;;;;;;;;23.63;45.53;100625.12;1718685;82;20207;-77
2022/08/03 21:48:20;;;;;;;;;;;;;;;23.58;45.58;100624.51;1718874;81;20169;-77
2022/08/03 21:50:47;;;;;;;;;;;;;;;23.55;45.70;100626.91;1723125;81;21132;-77
2022/08/03 21:53:13;;;;;;;;;;;;;;;23.54;45.74;100619.83;1709898;82;20161;-77
2022/08/03 21:55:39;;;;;;;;;;;;;;;23.55;45.84;100626.91;1707894;81;20194;-77
2022/08/03 21:58:05;;;;;;;;;;;;;;;23.54;45.88;100623.92;1672049;84;20170;-77
2022/08/03 22:00:31;;;;;;;;;;;;;;;23.53;45.94;100623.63;1716613;82;20231;-76
2022/08/03 22:02:57;;;;;;;;;;;;;;;23.50;46.00;100626.84;1718794;82;21121;-77
2022/08/03 22:05:27;;;;;;;;;;;;;;;23.47;46.04;100624.63;1711393;81;20210;-77
2022/08/03 22:07:53;;;;;;;;;;;;;;;23.42;46.09;100624.53;1712992;82;20470;-77
2022/08/03 22:10:19;;;;;;;;;;;;;;;23.39;46.17;100626.66;1717331;82;20239;-76
2022/08/03 22:12:45;;;;;;;;;;;;;;;23.38;46.23;100625.00;1698139;81;20156;-76
2022/08/03 22:15:11;;;;;;;;;;;;;;;23.35;46.30;100627.39;1665393;83;21205;-77
2022/08/03 22:17:38;;;;;;;;;;;;;;;23.35;46.35;100625.50;1677465;83;20487;-77
2022/08/03 22:20:06;;;;;;;;;;;;;;;23.35;46.39;100628.23;1686802;83;20157;-77
2022/08/03 22:22:32;;;;;;;;;;;;;;;23.31;46.44;100632.52;1679379;83;20164;-76
2022/08/03 22:25:01;;;;;;;;;;;;;;;23.28;46.52;100633.02;1677281;83;20155;-76
2022/08/03 22:27:30;;;;;;;;;;;;;;;23.25;46.59;100633.51;1675568;85;21873;-76
2022/08/03 22:30:02;;;;;;;;;;;;;;;23.24;46.66;100629.12;1676946;83;20153;-76
2022/08/03 22:32:28;;;;;;;;;;;;;;;23.24;46.71;100629.12;1678766;83;20460;-76
2022/08/03 22:34:54;;;;;;;;;;;;;;;23.23;46.76;100630.19;1678925;84;20190;-76
2022/08/03 22:37:20;;;;;;;;;;;;;;;23.21;46.82;100633.71;1677688;84;20193;-76
2022/08/03 22:39:46;;;;;;;;;;;;;;;23.19;46.87;100634.48;1678850;85;21147;-76
2022/08/03 22:42:12;;;;;;;;;;;;;;;23.17;46.95;100633.91;1674973;85;20601;-77
2022/08/03 22:44:38;;;;;;;;;;;;;;;23.15;46.99;100638.76;1679686;84;20172;-76
2022/08/03 22:47:04;;;;;;;;;;;;;;;23.13;47.05;100636.00;1681809;83;20163;-76
2022/08/03 22:49:30;;;;;;;;;;;;;;;23.10;47.14;100635.14;1680350;83;20168;-76
2022/08/03 22:51:57;;;;;;;;;;;;;;;23.08;47.18;100635.93;1669951;84;21830;-76
2022/08/03 22:54:23;;;;;;;;;;;;;;;23.04;47.26;100638.31;1676627;84;20559;-77
2022/08/03 22:56:49;;;;;;;;;;;;;;;23.02;47.34;100635.00;1676346;85;20198;-76